createdAt,value
2018-03-23T00:00:27.320Z,93.42
2018-03-23T00:01:27.320Z,93.46
2018-03-23T00:02:27.329Z,93.58
2018-03-23T00:03:27.342Z,93.66
2018-03-23T00:04:27.334Z,93.57
2018-03-23T00:05:27.355Z,93.58
2018-03-23T00:06:27.355Z,93.54
2018-03-23T00:07:27.353Z,93.5
2018-03-23T00:08:27.349Z,93.42
2018-03-23T00:09:27.341Z,93.59
2018-03-23T00:10:27.338Z,93.66
2018-03-23T00:11:27.359Z,93.68
2018-03-23T00:12:27.345Z,93.66
2018-03-23T00:13:27.352Z,93.84
2018-03-23T00:14:27.377Z,93.41
2018-03-23T00:15:27.354Z,93.42
2018-03-23T00:16:27.362Z,93.33
2018-03-23T00:17:27.393Z,93.51
2018-03-23T00:18:27.366Z,93.39
2018-03-23T00:19:27.393Z,93.26
2018-03-23T00:20:27.373Z,93.63
2018-03-23T00:21:27.398Z,93.53
2018-03-23T00:22:27.407Z,93.68
2018-03-23T00:23:27.376Z,93.59
2018-03-23T00:24:27.377Z,93.89
2018-03-23T00:25:27.384Z,93.47
2018-03-23T00:26:27.407Z,93.77
2018-03-23T00:27:27.401Z,93.69
2018-03-23T00:28:27.413Z,93.6
2018-03-23T00:29:27.415Z,93.74
2018-03-23T00:30:27.402Z,93.64
2018-03-23T00:31:27.433Z,93.38
2018-03-23T00:32:27.449Z,93.41
2018-03-23T00:33:27.425Z,93.56
2018-03-23T00:34:27.432Z,93.57
2018-03-23T00:35:27.430Z,93.7
2018-03-23T00:36:27.429Z,93.88
2018-03-23T00:37:27.454Z,94.01
2018-03-23T00:38:27.437Z,93.81
2018-03-23T00:39:27.539Z,93.82
2018-03-23T00:40:27.437Z,93.61
2018-03-23T00:41:27.450Z,93.62
2018-03-23T00:42:27.483Z,94.25
2018-03-23T00:43:27.436Z,94.13
2018-03-23T00:44:27.466Z,93.88
2018-03-23T00:45:27.448Z,93.73
2018-03-23T00:46:27.468Z,93.9
2018-03-23T00:47:27.463Z,93.75
2018-03-23T00:48:27.444Z,93.99
2018-03-23T00:49:27.495Z,94.03
2018-03-23T00:50:27.451Z,93.82
2018-03-23T00:51:27.460Z,93.87
2018-03-23T00:52:27.450Z,93.55
2018-03-23T00:53:27.477Z,93.69
2018-03-23T00:54:27.470Z,93.69
2018-03-23T00:55:27.468Z,93.73
2018-03-23T00:56:27.476Z,93.44
2018-03-23T00:57:27.461Z,93.8
2018-03-23T00:58:27.493Z,93.68
2018-03-23T00:59:27.711Z,93.83
2018-03-23T01:00:27.497Z,93.78
2018-03-23T01:01:27.479Z,93.6
2018-03-23T01:02:27.480Z,93.9
2018-03-23T01:03:27.547Z,93.78
2018-03-23T01:04:27.484Z,93.5
2018-03-23T01:05:27.494Z,93.58
2018-03-23T01:06:27.676Z,93.37
2018-03-23T01:07:27.515Z,93.7
2018-03-23T01:08:27.513Z,93.46
2018-03-23T01:09:27.707Z,93.62
2018-03-23T01:10:27.507Z,93.48
2018-03-23T01:11:27.510Z,93.5
2018-03-23T01:12:27.516Z,93
2018-03-23T01:13:27.545Z,93
2018-03-23T01:14:27.519Z,93.07
2018-03-23T01:15:27.529Z,93.47
2018-03-23T01:16:27.536Z,93.55
2018-03-23T01:17:27.533Z,93.45
2018-03-23T01:18:27.557Z,93.77
2018-03-23T01:19:27.602Z,94.12
2018-03-23T01:20:27.540Z,93.9
2018-03-23T01:21:27.547Z,94.05
2018-03-23T01:22:27.541Z,94.07
2018-03-23T01:23:27.569Z,93.86
2018-03-23T01:24:27.576Z,93.61
2018-03-23T01:25:27.553Z,93.65
2018-03-23T01:26:27.550Z,93.82
2018-03-23T01:27:27.552Z,93.92
2018-03-23T01:28:27.642Z,94.05
2018-03-23T01:29:27.559Z,94.02
2018-03-23T01:30:27.572Z,94.08
2018-03-23T01:31:27.592Z,93.87
2018-03-23T01:32:27.568Z,93.87
2018-03-23T01:33:27.604Z,94.02
2018-03-23T01:34:27.586Z,94.19
2018-03-23T01:35:27.571Z,94.11
2018-03-23T01:36:27.686Z,94.65
2018-03-23T01:37:27.584Z,94.56
2018-03-23T01:38:27.606Z,94.33
2018-03-23T01:39:27.638Z,94.29
2018-03-23T01:40:27.576Z,94.29
2018-03-23T01:41:27.590Z,94.22
2018-03-23T01:42:27.605Z,94.44
2018-03-23T01:43:27.604Z,94.43
2018-03-23T01:44:27.634Z,94.36
2018-03-23T01:45:27.619Z,94.31
2018-03-23T01:46:27.592Z,94.1
2018-03-23T01:47:27.602Z,94.07
2018-03-23T01:48:27.629Z,93.79
2018-03-23T01:49:27.618Z,93.85
2018-03-23T01:50:27.624Z,93.74
2018-03-23T01:51:31.728Z,94.05
2018-03-23T01:52:27.640Z,93.91
2018-03-23T01:53:27.629Z,93.94
2018-03-23T01:54:27.625Z,94.17
2018-03-23T01:55:27.703Z,94.35
2018-03-23T01:56:27.636Z,94.12
2018-03-23T01:57:27.633Z,94.31
2018-03-23T01:58:27.654Z,94.24
2018-03-23T01:59:27.664Z,93.85
2018-03-23T02:00:27.654Z,94.32
2018-03-23T02:01:27.666Z,94.12
2018-03-23T02:02:27.671Z,94.09
2018-03-23T02:03:27.654Z,94.24
2018-03-23T02:04:27.679Z,94.26
2018-03-23T02:05:27.676Z,94.32
2018-03-23T02:06:27.681Z,94.22
2018-03-23T02:07:27.675Z,94.07
2018-03-23T02:08:27.674Z,94.3
2018-03-23T02:09:27.704Z,93.97
2018-03-23T02:10:27.708Z,94.11
2018-03-23T02:11:27.696Z,94.21
2018-03-23T02:12:27.698Z,94.63
2018-03-23T02:13:27.719Z,93.98
2018-03-23T02:14:27.722Z,94.31
2018-03-23T02:15:27.703Z,94.42
2018-03-23T02:16:27.916Z,94.24
2018-03-23T02:17:27.732Z,94.1
2018-03-23T02:18:27.719Z,93.76
2018-03-23T02:19:27.715Z,93.9
2018-03-23T02:20:27.725Z,93.99
2018-03-23T02:21:27.739Z,94.04
2018-03-23T02:22:27.724Z,94.03
2018-03-23T02:23:27.741Z,94.09
2018-03-23T02:24:27.777Z,93.99
2018-03-23T02:25:27.764Z,94.19
2018-03-23T02:26:27.753Z,93.71
2018-03-23T02:27:27.761Z,93.93
2018-03-23T02:28:27.755Z,93.88
2018-03-23T02:29:27.763Z,93.97
2018-03-23T02:30:27.796Z,93.92
2018-03-23T02:31:27.793Z,94.11
2018-03-23T02:32:27.778Z,94.02
2018-03-23T02:33:27.858Z,93.91
2018-03-23T02:34:27.790Z,93.97
2018-03-23T02:35:27.797Z,94.22
2018-03-23T02:36:27.798Z,94.02
2018-03-23T02:37:27.810Z,94.47
2018-03-23T02:38:27.818Z,94.28
2018-03-23T02:39:27.835Z,94.27
2018-03-23T02:40:27.849Z,94.32
2018-03-23T02:41:27.865Z,94.39
2018-03-23T02:42:27.843Z,93.81
2018-03-23T02:43:27.832Z,93.75
2018-03-23T02:44:27.845Z,93.96
2018-03-23T02:45:27.877Z,93.9
2018-03-23T02:46:27.830Z,94.4
2018-03-23T02:47:27.829Z,94.27
2018-03-23T02:48:27.825Z,94.24
2018-03-23T02:49:27.844Z,94.55
2018-03-23T02:50:27.835Z,94.5
2018-03-23T02:51:27.864Z,94.35
2018-03-23T02:52:27.867Z,94.56
2018-03-23T02:53:27.857Z,94.38
2018-03-23T02:54:27.868Z,94.49
2018-03-23T02:55:28.221Z,94.76
2018-03-23T02:56:27.888Z,94.71
2018-03-23T02:57:27.863Z,94.92
2018-03-23T02:58:27.870Z,94.96
2018-03-23T02:59:27.886Z,94.81
2018-03-23T03:00:27.923Z,94.63
2018-03-23T03:01:27.876Z,94.72
2018-03-23T03:02:27.884Z,94.9
2018-03-23T03:03:27.887Z,94.86
2018-03-23T03:04:27.892Z,94.72
2018-03-23T03:05:27.895Z,94.71
2018-03-23T03:06:27.918Z,94.55
2018-03-23T03:07:27.895Z,94.66
2018-03-23T03:08:27.907Z,94.68
2018-03-23T03:09:27.892Z,94.74
2018-03-23T03:10:27.905Z,94.47
2018-03-23T03:11:27.912Z,94.35
2018-03-23T03:12:27.913Z,94.27
2018-03-23T03:13:27.925Z,94.26
2018-03-23T03:14:27.912Z,94.67
2018-03-23T03:15:27.925Z,94.77
2018-03-23T03:16:27.914Z,95.05
2018-03-23T03:17:27.961Z,94.67
2018-03-23T03:18:27.925Z,94.95
2018-03-23T03:19:27.948Z,94.9
2018-03-23T03:20:27.941Z,94.91
2018-03-23T03:21:27.939Z,95.03
2018-03-23T03:22:27.936Z,94.96
2018-03-23T03:23:27.945Z,94.97
2018-03-23T03:24:27.968Z,94.85
2018-03-23T03:25:27.946Z,94.96
2018-03-23T03:26:27.961Z,94.99
2018-03-23T03:27:27.958Z,95.09
2018-03-23T03:28:27.959Z,95.01
2018-03-23T03:29:27.959Z,94.96
2018-03-23T03:30:27.979Z,95.1
2018-03-23T03:31:28.023Z,94.99
2018-03-23T03:32:27.981Z,94.85
2018-03-23T03:33:27.986Z,94.61
2018-03-23T03:34:27.989Z,94.59
2018-03-23T03:35:28.000Z,94.77
2018-03-23T03:36:27.992Z,94.78
2018-03-23T03:37:27.996Z,94.86
2018-03-23T03:38:28.037Z,95.04
2018-03-23T03:39:28.026Z,95.03
2018-03-23T03:40:28.017Z,94.62
2018-03-23T03:41:28.012Z,94.84
2018-03-23T03:42:28.017Z,95.16
2018-03-23T03:43:28.025Z,95.33
2018-03-23T03:44:28.065Z,95.51
2018-03-23T03:45:28.020Z,95.29
2018-03-23T03:46:28.034Z,95.28
2018-03-23T03:47:28.018Z,95.23
2018-03-23T03:48:28.023Z,95.16
2018-03-23T03:49:28.072Z,95.03
2018-03-23T03:50:28.041Z,94.77
2018-03-23T03:51:28.038Z,94.82
2018-03-23T03:52:28.049Z,94.99
2018-03-23T03:53:28.047Z,94.87
2018-03-23T03:54:28.047Z,95.05
2018-03-23T03:55:28.043Z,94.98
2018-03-23T03:56:28.058Z,94.97
2018-03-23T03:57:28.237Z,94.8
2018-03-23T03:58:28.054Z,94.99
2018-03-23T03:59:28.080Z,95.01
2018-03-23T04:00:28.073Z,94.57
2018-03-23T04:01:28.073Z,94.69
2018-03-23T04:02:28.094Z,94.89
2018-03-23T04:03:28.087Z,94.75
2018-03-23T04:04:28.100Z,94.6
2018-03-23T04:05:28.119Z,94.74
2018-03-23T04:06:28.111Z,94.62
2018-03-23T04:07:28.369Z,94.3
2018-03-23T04:08:28.090Z,94.34
2018-03-23T04:09:28.112Z,94.31
2018-03-23T04:10:28.135Z,94.38
2018-03-23T04:11:28.156Z,94.45
2018-03-23T04:12:28.126Z,94.22
2018-03-23T04:13:28.135Z,94.1
2018-03-23T04:14:28.126Z,94.18
2018-03-23T04:15:28.117Z,94.15
2018-03-23T04:16:28.122Z,94.18
2018-03-23T04:17:28.149Z,94.41
2018-03-23T04:18:28.136Z,94.96
2018-03-23T04:19:28.136Z,95.02
2018-03-23T04:20:28.152Z,94.98
2018-03-23T04:21:28.142Z,94.99
2018-03-23T04:22:28.151Z,94.95
2018-03-23T04:23:28.145Z,95.31
2018-03-23T04:24:28.161Z,95.18
2018-03-23T04:25:28.159Z,95.01
2018-03-23T04:26:28.189Z,94.79
2018-03-23T04:27:28.189Z,94.74
2018-03-23T04:28:28.171Z,94.67
2018-03-23T04:29:28.180Z,94.43
2018-03-23T04:30:28.173Z,94.61
2018-03-23T04:31:28.194Z,94.82
2018-03-23T04:32:28.172Z,94.86
2018-03-23T04:33:28.241Z,94.61
2018-03-23T04:34:28.201Z,94.4
2018-03-23T04:35:28.204Z,93.91
2018-03-23T04:36:28.205Z,94.25
2018-03-23T04:37:28.218Z,93.75
2018-03-23T04:38:28.264Z,94.41
2018-03-23T04:39:28.232Z,94.47
2018-03-23T04:40:28.227Z,94.83
2018-03-23T04:41:28.236Z,94.71
2018-03-23T04:42:28.258Z,94.38
2018-03-23T04:43:28.245Z,94.61
2018-03-23T04:44:28.236Z,94.87
2018-03-23T04:45:28.248Z,94.63
2018-03-23T04:46:28.238Z,94.59
2018-03-23T04:47:28.584Z,94.62
2018-03-23T04:48:28.250Z,94.86
2018-03-23T04:49:28.249Z,95.16
2018-03-23T04:50:28.241Z,94.77
2018-03-23T04:51:28.249Z,94.7
2018-03-23T04:52:28.289Z,94.32
2018-03-23T04:53:28.258Z,94.98
2018-03-23T04:54:28.298Z,94.77
2018-03-23T04:55:28.259Z,94.72
2018-03-23T04:56:28.272Z,94.92
2018-03-23T04:57:28.279Z,94.72
2018-03-23T04:58:28.294Z,94.85
2018-03-23T04:59:28.332Z,94.86
2018-03-23T05:00:28.302Z,94.77
2018-03-23T05:01:28.307Z,94.73
2018-03-23T05:02:28.307Z,95.07
2018-03-23T05:03:28.469Z,95.08
2018-03-23T05:04:28.306Z,94.9
2018-03-23T05:05:28.310Z,95.32
2018-03-23T05:06:28.375Z,95.5
2018-03-23T05:07:28.318Z,95.54
2018-03-23T05:08:28.351Z,95.39
2018-03-23T05:09:28.340Z,95.22
2018-03-23T05:10:28.324Z,95.3
2018-03-23T05:11:28.321Z,95.09
2018-03-23T05:12:28.324Z,94.78
2018-03-23T05:13:28.372Z,94.73
2018-03-23T05:14:28.328Z,94.74
2018-03-23T05:15:28.347Z,94.9
2018-03-23T05:16:28.365Z,94.9
2018-03-23T05:17:28.376Z,94.86
2018-03-23T05:18:28.391Z,95.3
2018-03-23T05:19:28.387Z,95.26
2018-03-23T05:20:28.392Z,95.09
2018-03-23T05:21:28.369Z,95.11
2018-03-23T05:22:28.358Z,94.97
2018-03-23T05:23:28.368Z,94.99
2018-03-23T05:24:28.371Z,95.42
2018-03-23T05:25:28.378Z,95.4
2018-03-23T05:26:28.377Z,95.18
2018-03-23T05:27:28.446Z,95.14
2018-03-23T05:28:28.399Z,95.26
2018-03-23T05:29:28.390Z,95.13
2018-03-23T05:30:28.385Z,94.95
2018-03-23T05:31:28.448Z,94.8
2018-03-23T05:32:28.422Z,94.92
2018-03-23T05:33:28.402Z,95.09
2018-03-23T05:34:28.420Z,94.84
2018-03-23T05:35:28.408Z,95.11
2018-03-23T05:36:28.415Z,94.63
2018-03-23T05:37:28.416Z,94.73
2018-03-23T05:38:28.446Z,95.28
2018-03-23T05:39:28.579Z,95.19
2018-03-23T05:40:28.441Z,94.77
2018-03-23T05:41:28.470Z,94.78
2018-03-23T05:42:28.421Z,94.58
2018-03-23T05:43:28.439Z,94.95
2018-03-23T05:44:28.436Z,95.04
2018-03-23T05:45:28.430Z,95.15
2018-03-23T05:46:28.440Z,95.18
2018-03-23T05:47:28.439Z,94.9
2018-03-23T05:48:28.489Z,94.67
2018-03-23T05:49:28.456Z,94.67
2018-03-23T05:50:28.467Z,94.78
2018-03-23T05:51:28.465Z,94.66
2018-03-23T05:52:28.454Z,94.44
2018-03-23T05:53:28.475Z,94.88
2018-03-23T05:54:28.461Z,94.64
2018-03-23T05:55:28.509Z,94.53
2018-03-23T05:56:28.491Z,94.74
2018-03-23T05:57:28.475Z,94.88
2018-03-23T05:58:28.521Z,94.67
2018-03-23T05:59:28.490Z,94.63
2018-03-23T06:00:28.481Z,94.61
2018-03-23T06:01:28.505Z,93.94
2018-03-23T06:02:28.513Z,93.85
2018-03-23T06:03:28.497Z,94.48
2018-03-23T06:04:28.504Z,94.78
2018-03-23T06:05:28.510Z,94.76
2018-03-23T06:06:28.664Z,94.42
2018-03-23T06:07:28.622Z,94.83
2018-03-23T06:08:28.521Z,94.98
2018-03-23T06:09:28.888Z,95.22
2018-03-23T06:10:28.547Z,95.15
2018-03-23T06:11:28.523Z,94.94
2018-03-23T06:12:28.518Z,94.95
2018-03-23T06:13:28.550Z,95.09
2018-03-23T06:14:28.541Z,95.15
2018-03-23T06:15:28.556Z,94.94
2018-03-23T06:16:28.549Z,95.26
2018-03-23T06:17:28.527Z,95.09
2018-03-23T06:18:28.543Z,95.1
2018-03-23T06:19:28.540Z,94.85
2018-03-23T06:20:28.568Z,94.97
2018-03-23T06:21:28.544Z,95.12
2018-03-23T06:22:28.550Z,94.99
2018-03-23T06:23:28.556Z,94.77
2018-03-23T06:24:28.562Z,95
2018-03-23T06:25:28.590Z,94.78
2018-03-23T06:26:28.573Z,94.47
2018-03-23T06:27:28.586Z,94.46
2018-03-23T06:28:28.573Z,94.23
2018-03-23T06:29:28.599Z,94.57
2018-03-23T06:30:28.612Z,94.4
2018-03-23T06:31:28.624Z,94.68
2018-03-23T06:32:28.607Z,94.8
2018-03-23T06:33:28.760Z,94.9
2018-03-23T06:34:28.596Z,94.53
2018-03-23T06:35:28.885Z,94.89
2018-03-23T06:36:28.598Z,94.93
2018-03-23T06:37:28.633Z,95
2018-03-23T06:38:28.674Z,94.97
2018-03-23T06:39:28.623Z,94.77
2018-03-23T06:40:28.647Z,94.95
2018-03-23T06:41:28.782Z,94.78
2018-03-23T06:42:28.630Z,94.7
2018-03-23T06:43:28.654Z,94.77
2018-03-23T06:44:28.629Z,95.01
2018-03-23T06:45:28.652Z,95.09
2018-03-23T06:46:28.620Z,95.09
2018-03-23T06:47:28.633Z,95.03
2018-03-23T06:48:28.689Z,94.97
2018-03-23T06:49:28.639Z,94.99
2018-03-23T06:50:28.661Z,94.99
2018-03-23T06:51:28.648Z,95.02
2018-03-23T06:52:28.632Z,94.83
2018-03-23T06:53:28.646Z,95.16
2018-03-23T06:54:28.814Z,95.09
2018-03-23T06:55:28.685Z,95.19
2018-03-23T06:56:28.661Z,95.24
2018-03-23T06:57:28.662Z,95.22
2018-03-23T06:58:28.655Z,95.18
2018-03-23T06:59:28.665Z,95.12
2018-03-23T07:00:28.689Z,95.12
2018-03-23T07:01:28.725Z,94.84
2018-03-23T07:02:28.687Z,95.23
2018-03-23T07:03:28.679Z,95.52
2018-03-23T07:04:28.688Z,95.17
2018-03-23T07:05:28.717Z,94.98
2018-03-23T07:06:28.697Z,95.14
2018-03-23T07:07:28.690Z,95.34
2018-03-23T07:08:28.697Z,95.5
2018-03-23T07:09:28.711Z,95.54
2018-03-23T07:10:28.694Z,95.41
2018-03-23T07:11:28.992Z,95.29
2018-03-23T07:12:28.707Z,95.7
2018-03-23T07:13:28.723Z,95.43
2018-03-23T07:14:28.722Z,95.14
2018-03-23T07:15:28.729Z,94.47
2018-03-23T07:16:28.759Z,94.39
2018-03-23T07:17:28.736Z,94.64
2018-03-23T07:18:28.743Z,94.68
2018-03-23T07:19:28.749Z,95.34
2018-03-23T07:20:28.768Z,95.18
2018-03-23T07:21:28.769Z,95.13
2018-03-23T07:22:28.749Z,95.36
2018-03-23T07:23:28.764Z,95.27
2018-03-23T07:24:28.759Z,95.44
2018-03-23T07:25:28.777Z,95.61
2018-03-23T07:26:28.774Z,95.3
2018-03-23T07:27:28.794Z,95.54
2018-03-23T07:28:28.779Z,95.52
2018-03-23T07:29:28.783Z,95.39
2018-03-23T07:30:28.781Z,95.28
2018-03-23T07:31:28.778Z,95.47
2018-03-23T07:32:28.813Z,95.23
2018-03-23T07:33:28.796Z,94.95
2018-03-23T07:34:28.808Z,95.58
2018-03-23T07:35:28.789Z,95.79
2018-03-23T07:36:28.802Z,95.86
2018-03-23T07:37:28.837Z,95.59
2018-03-23T07:38:28.810Z,95.48
2018-03-23T07:39:28.825Z,95.42
2018-03-23T07:40:28.817Z,95.39
2018-03-23T07:41:28.851Z,95.17
2018-03-23T07:42:28.869Z,94.83
2018-03-23T07:43:28.895Z,94.92
2018-03-23T07:44:28.838Z,95.57
2018-03-23T07:45:28.830Z,95.95
2018-03-23T07:46:28.847Z,95.88
2018-03-23T07:47:28.907Z,96.05
2018-03-23T07:48:28.888Z,95.9
2018-03-23T07:49:28.855Z,95.81
2018-03-23T07:50:28.862Z,95.47
2018-03-23T07:51:28.865Z,95.82
2018-03-23T07:52:28.917Z,95.86
2018-03-23T07:53:28.948Z,95.77
2018-03-23T07:54:28.875Z,95.66
2018-03-23T07:55:28.899Z,95.68
2018-03-23T07:56:28.896Z,95.86
2018-03-23T07:57:29.184Z,95.74
2018-03-23T07:58:28.884Z,95.67
2018-03-23T07:59:28.890Z,95.55
2018-03-23T08:00:28.917Z,95.65
2018-03-23T08:01:28.915Z,94.95
2018-03-23T08:02:28.943Z,94.56
2018-03-23T08:03:28.895Z,94.85
2018-03-23T08:04:28.921Z,94.83
2018-03-23T08:05:28.907Z,94.6
2018-03-23T08:06:28.897Z,94.44
2018-03-23T08:07:29.203Z,94.47
2018-03-23T08:08:28.922Z,94.66
2018-03-23T08:09:28.943Z,94.57
2018-03-23T08:10:28.928Z,94.59
2018-03-23T08:11:28.923Z,93.79
2018-03-23T08:12:28.965Z,94.01
2018-03-23T08:13:28.953Z,94.4
2018-03-23T08:14:28.927Z,94.49
2018-03-23T08:15:28.975Z,94.51
2018-03-23T08:16:29.003Z,94.38
2018-03-23T08:17:29.006Z,94.6
2018-03-23T08:18:28.949Z,94.6
2018-03-23T08:19:29.088Z,94.53
2018-03-23T08:20:28.976Z,95.03
2018-03-23T08:21:28.965Z,94.88
2018-03-23T08:22:28.967Z,95.07
2018-03-23T08:23:28.966Z,94.88
2018-03-23T08:24:28.993Z,95.03
2018-03-23T08:25:28.981Z,95.01
2018-03-23T08:26:28.967Z,95.22
2018-03-23T08:27:29.029Z,95.3
2018-03-23T08:28:28.995Z,94.97
2018-03-23T08:29:29.010Z,95
2018-03-23T08:30:28.987Z,94.51
2018-03-23T08:31:28.991Z,94.51
2018-03-23T08:32:28.994Z,94.31
2018-03-23T08:33:28.988Z,94.59
2018-03-23T08:34:29.006Z,94.79
2018-03-23T08:35:28.996Z,95.18
2018-03-23T08:36:29.010Z,95.06
2018-03-23T08:37:29.036Z,94.91
2018-03-23T08:38:29.007Z,94.82
2018-03-23T08:39:29.014Z,94.78
2018-03-23T08:40:29.000Z,94.69
2018-03-23T08:41:29.017Z,94.44
2018-03-23T08:42:29.000Z,94.54
2018-03-23T08:43:29.011Z,94.38
2018-03-23T08:44:29.200Z,94.8
2018-03-23T08:45:29.028Z,94.59
2018-03-23T08:46:29.036Z,95.06
2018-03-23T08:47:29.066Z,94.96
2018-03-23T08:48:29.050Z,94.58
2018-03-23T08:49:29.034Z,94.77
2018-03-23T08:50:29.062Z,94.54
2018-03-23T08:51:29.059Z,94.68
2018-03-23T08:52:29.105Z,94.52
2018-03-23T08:53:29.228Z,94.64
2018-03-23T08:54:29.054Z,94.91
2018-03-23T08:55:29.065Z,94.79
2018-03-23T08:56:29.073Z,94.76
2018-03-23T08:57:29.074Z,94.98
2018-03-23T08:58:29.098Z,94.96
2018-03-23T08:59:29.065Z,94.99
2018-03-23T09:00:29.064Z,94.81
2018-03-23T09:01:29.072Z,94.77
2018-03-23T09:02:29.098Z,94.76
2018-03-23T09:03:29.233Z,94.68
2018-03-23T09:04:29.089Z,94.73
2018-03-23T09:05:29.115Z,94.47
2018-03-23T09:06:29.092Z,94.59
2018-03-23T09:07:29.090Z,94.72
2018-03-23T09:08:29.117Z,94.87
2018-03-23T09:09:29.113Z,94.46
2018-03-23T09:10:29.103Z,94.63
2018-03-23T09:11:29.120Z,94.69
2018-03-23T09:12:29.116Z,94.29
2018-03-23T09:13:29.124Z,94.14
2018-03-23T09:14:29.114Z,94.45
2018-03-23T09:15:29.118Z,94.62
2018-03-23T09:16:29.129Z,94.65
2018-03-23T09:17:29.126Z,94.89
2018-03-23T09:18:29.137Z,94.9
2018-03-23T09:19:29.145Z,94.55
2018-03-23T09:20:29.241Z,94.84
2018-03-23T09:21:29.125Z,94.59
2018-03-23T09:22:29.130Z,94.74
2018-03-23T09:23:29.181Z,94.43
2018-03-23T09:24:29.147Z,94.3
2018-03-23T09:25:29.167Z,94.64
2018-03-23T09:26:29.155Z,94.63
2018-03-23T09:27:29.161Z,94.19
2018-03-23T09:28:29.189Z,94.36
2018-03-23T09:29:29.164Z,94.38
2018-03-23T09:30:29.176Z,94.47
2018-03-23T09:31:29.179Z,94.25
2018-03-23T09:32:29.168Z,94.5
2018-03-23T09:33:29.474Z,94.74
2018-03-23T09:34:29.180Z,94.77
2018-03-23T09:35:29.186Z,94.54
2018-03-23T09:36:29.183Z,94.71
2018-03-23T09:37:29.178Z,94.86
2018-03-23T09:38:29.377Z,94.28
2018-03-23T09:39:29.205Z,94.42
2018-03-23T09:40:29.194Z,94.09
2018-03-23T09:41:29.213Z,94.14
2018-03-23T09:42:29.229Z,94.61
2018-03-23T09:43:29.249Z,94.3
2018-03-23T09:44:29.235Z,94.25
2018-03-23T09:45:29.220Z,94.64
2018-03-23T09:46:29.226Z,94.64
2018-03-23T09:47:29.217Z,95.02
2018-03-23T09:48:29.263Z,94.91
2018-03-23T09:49:29.230Z,94.85
2018-03-23T09:50:29.214Z,94.72
2018-03-23T09:51:29.222Z,94.6
2018-03-23T09:52:29.240Z,94.77
2018-03-23T09:53:29.240Z,94.62
2018-03-23T09:54:29.235Z,94.47
2018-03-23T09:55:29.233Z,94.54
2018-03-23T09:56:29.230Z,94.31
2018-03-23T09:57:29.228Z,94.72
2018-03-23T09:58:29.420Z,94.45
2018-03-23T09:59:29.244Z,94.6
2018-03-23T10:00:29.245Z,94.72
2018-03-23T10:01:29.264Z,94.11
2018-03-23T10:02:29.245Z,94.36
2018-03-23T10:03:29.335Z,94.43
2018-03-23T10:04:29.327Z,94.68
2018-03-23T10:05:29.460Z,94.83
2018-03-23T10:06:29.248Z,94.45
2018-03-23T10:07:29.255Z,94.45
2018-03-23T10:08:29.266Z,94.4
2018-03-23T10:09:29.292Z,94.15
2018-03-23T10:10:29.273Z,94.49
2018-03-23T10:11:29.278Z,94.42
2018-03-23T10:12:29.280Z,94.12
2018-03-23T10:13:29.271Z,94.37
2018-03-23T10:14:29.314Z,94.37
2018-03-23T10:15:29.508Z,94.54
2018-03-23T10:16:29.293Z,94.42
2018-03-23T10:17:29.324Z,94.45
2018-03-23T10:18:29.292Z,94.71
2018-03-23T10:19:29.315Z,94.76
2018-03-23T10:20:29.299Z,94.78
2018-03-23T10:21:29.368Z,94.72
2018-03-23T10:22:29.333Z,94.83
2018-03-23T10:23:29.343Z,94.94
2018-03-23T10:24:29.340Z,94.64
2018-03-23T10:25:29.324Z,94.52
2018-03-23T10:26:29.323Z,94.32
2018-03-23T10:27:29.321Z,94.05
2018-03-23T10:28:29.343Z,94.35
2018-03-23T10:29:29.347Z,94.72
2018-03-23T10:30:29.334Z,94.86
2018-03-23T10:31:29.346Z,94.83
2018-03-23T10:32:29.341Z,94.89
2018-03-23T10:33:29.345Z,94.79
2018-03-23T10:34:29.349Z,94.95
2018-03-23T10:35:29.551Z,94.91
2018-03-23T10:36:29.349Z,94.82
2018-03-23T10:37:29.389Z,94.87
2018-03-23T10:38:29.348Z,94.8
2018-03-23T10:39:29.378Z,94.75
2018-03-23T10:40:29.372Z,95.2
2018-03-23T10:41:29.364Z,94.87
2018-03-23T10:42:29.370Z,94.83
2018-03-23T10:43:29.667Z,95.03
2018-03-23T10:44:29.381Z,95.01
2018-03-23T10:45:29.370Z,94.93
2018-03-23T10:46:29.389Z,95
2018-03-23T10:47:29.398Z,94.41
2018-03-23T10:48:29.395Z,94.49
2018-03-23T10:49:29.384Z,94.47
2018-03-23T10:50:29.375Z,95.07
2018-03-23T10:51:29.407Z,94.47
2018-03-23T10:52:29.422Z,94.6
2018-03-23T10:53:29.624Z,94.12
2018-03-23T10:54:29.403Z,93.68
2018-03-23T10:55:29.391Z,93.92
2018-03-23T10:56:29.403Z,93.94
2018-03-23T10:57:29.404Z,94.15
2018-03-23T10:58:29.440Z,94.34
2018-03-23T10:59:29.397Z,94.15
2018-03-23T11:00:29.414Z,94.1
2018-03-23T11:01:29.447Z,94.41
2018-03-23T11:02:29.421Z,94.58
2018-03-23T11:03:29.464Z,94.59
2018-03-23T11:04:29.436Z,94.71
2018-03-23T11:05:29.440Z,94.41
2018-03-23T11:06:29.475Z,94.48
2018-03-23T11:07:29.451Z,94.49
2018-03-23T11:08:29.461Z,94.66
2018-03-23T11:09:29.465Z,94.58
2018-03-23T11:10:29.463Z,94.7
2018-03-23T11:11:29.455Z,94.54
2018-03-23T11:12:29.472Z,94.68
2018-03-23T11:13:29.470Z,94.3
2018-03-23T11:14:29.732Z,94.28
2018-03-23T11:15:29.480Z,93.91
2018-03-23T11:16:29.487Z,94.46
2018-03-23T11:17:29.480Z,94.11
2018-03-23T11:18:29.490Z,93.97
2018-03-23T11:19:29.513Z,93.98
2018-03-23T11:20:29.492Z,94.25
2018-03-23T11:21:29.514Z,93.91
2018-03-23T11:22:29.521Z,93.66
2018-03-23T11:23:29.527Z,93.97
2018-03-23T11:24:29.750Z,93.75
2018-03-23T11:25:29.486Z,93.82
2018-03-23T11:26:29.513Z,93.69
2018-03-23T11:27:29.511Z,93.6
2018-03-23T11:28:29.540Z,93.3
2018-03-23T11:29:29.533Z,93.36
2018-03-23T11:30:29.530Z,93.59
2018-03-23T11:31:29.521Z,93.41
2018-03-23T11:32:29.542Z,93.68
2018-03-23T11:33:29.550Z,93.98
2018-03-23T11:34:29.541Z,93.86
2018-03-23T11:35:29.564Z,94.14
2018-03-23T11:36:29.552Z,94.29
2018-03-23T11:37:29.565Z,93.58
2018-03-23T11:38:29.564Z,93.51
2018-03-23T11:39:29.568Z,93.52
2018-03-23T11:40:29.590Z,93.06
2018-03-23T11:41:29.586Z,93.21
2018-03-23T11:42:29.582Z,93.17
2018-03-23T11:43:29.570Z,93.96
2018-03-23T11:44:29.571Z,93.37
2018-03-23T11:45:29.597Z,93.87
2018-03-23T11:46:29.573Z,93.56
2018-03-23T11:47:29.598Z,93.23
2018-03-23T11:48:29.592Z,92.78
2018-03-23T11:49:29.614Z,92.79
2018-03-23T11:50:29.651Z,92.45
2018-03-23T11:51:29.672Z,92.69
2018-03-23T11:52:29.641Z,92.35
2018-03-23T11:53:29.622Z,92.56
2018-03-23T11:54:29.691Z,92.4
2018-03-23T11:55:29.656Z,92.99
2018-03-23T11:56:29.788Z,92.47
2018-03-23T11:57:29.662Z,92.14
2018-03-23T11:58:29.679Z,91.67
2018-03-23T11:59:29.665Z,91.98
2018-03-23T12:00:29.652Z,91.75
2018-03-23T12:01:29.676Z,92.05
2018-03-23T12:02:29.646Z,92.17
2018-03-23T12:03:29.644Z,92.25
2018-03-23T12:04:29.662Z,91.88
2018-03-23T12:05:29.686Z,91.87
2018-03-23T12:06:29.658Z,91.37
2018-03-23T12:07:29.836Z,91.64
2018-03-23T12:08:29.699Z,91.96
2018-03-23T12:09:29.683Z,92.22
2018-03-23T12:10:29.806Z,92.25
2018-03-23T12:11:29.768Z,91.81
2018-03-23T12:12:29.703Z,91.7
2018-03-23T12:13:29.676Z,91.62
2018-03-23T12:14:29.895Z,91.46
2018-03-23T12:15:29.752Z,91.7
2018-03-23T12:16:29.759Z,92.02
2018-03-23T12:17:29.744Z,92.08
2018-03-23T12:18:29.701Z,91.92
2018-03-23T12:19:29.716Z,91.6
2018-03-23T12:20:30.000Z,91.81
2018-03-23T12:21:29.942Z,91.89
2018-03-23T12:22:29.723Z,91.41
2018-03-23T12:23:29.755Z,91.81
2018-03-23T12:24:29.738Z,91.99
2018-03-23T12:25:29.780Z,91.85
2018-03-23T12:26:29.750Z,91.58
2018-03-23T12:27:29.894Z,92.05
2018-03-23T12:28:29.757Z,91.71
2018-03-23T12:29:29.814Z,91.92
2018-03-23T12:30:29.778Z,92.09
2018-03-23T12:31:29.827Z,92.29
2018-03-23T12:32:29.773Z,92.58
2018-03-23T12:33:29.812Z,91.87
2018-03-23T12:34:29.786Z,91.35
2018-03-23T12:35:29.803Z,91.44
2018-03-23T12:36:29.791Z,90.99
2018-03-23T12:37:29.804Z,90.75
2018-03-23T12:38:29.798Z,90.82
2018-03-23T12:39:29.812Z,90.76
2018-03-23T12:40:29.828Z,91.17
2018-03-23T12:41:30.122Z,91.1
2018-03-23T12:42:29.810Z,91.17
2018-03-23T12:43:29.816Z,91.31
2018-03-23T12:44:29.814Z,91.27
2018-03-23T12:45:30.085Z,91.23
2018-03-23T12:46:29.869Z,90.95
2018-03-23T12:47:29.838Z,91.1
2018-03-23T12:48:29.854Z,90.92
2018-03-23T12:49:29.848Z,91.04
2018-03-23T12:50:29.824Z,90.49
2018-03-23T12:51:29.862Z,91.27
2018-03-23T12:52:29.852Z,91.52
2018-03-23T12:53:29.867Z,91.23
2018-03-23T12:54:29.853Z,90.91
2018-03-23T12:55:29.852Z,90.81